sensor_id;sensor_type;location;lat;lon;timestamp;P1;durP1;ratioP1;P2;durP2;ratioP2
16967;SDS011;64862;54.398;10.126;2023-03-25T00:05:56;11.77;;;2.20;;
16967;SDS011;64862;54.398;10.126;2023-03-25T00:15:59;7.55;;;1.80;;
16967;SDS011;64862;54.398;10.126;2023-03-25T00:26:03;10.52;;;2.42;;
16967;SDS011;64862;54.398;10.126;2023-03-25T00:36:07;9.90;;;2.65;;
16967;SDS011;64862;54.398;10.126;2023-03-25T00:46:12;8.38;;;2.05;;
16967;SDS011;64862;54.398;10.126;2023-03-25T00:56:16;8.23;;;2.40;;
16967;SDS011;64862;54.398;10.126;2023-03-25T01:06:19;9.98;;;2.20;;
16967;SDS011;64862;54.398;10.126;2023-03-25T01:16:25;9.90;;;2.20;;
16967;SDS011;64862;54.398;10.126;2023-03-25T01:26:27;9.93;;;2.13;;
16967;SDS011;64862;54.398;10.126;2023-03-25T01:36:30;13.18;;;2.85;;
16967;SDS011;64862;54.398;10.126;2023-03-25T01:46:36;9.07;;;3.50;;
16967;SDS011;64862;54.398;10.126;2023-03-25T01:56:46;11.43;;;4.10;;
16967;SDS011;64862;54.398;10.126;2023-03-25T02:06:51;11.20;;;4.05;;
16967;SDS011;64862;54.398;10.126;2023-03-25T02:16:58;11.40;;;4.13;;
16967;SDS011;64862;54.398;10.126;2023-03-25T02:48:20;10.65;;;4.75;;
16967;SDS011;64862;54.398;10.126;2023-03-25T02:58:27;10.27;;;4.32;;
16967;SDS011;64862;54.398;10.126;2023-03-25T03:08:35;12.48;;;5.30;;
16967;SDS011;64862;54.398;10.126;2023-03-25T03:18:47;11.48;;;5.13;;
16967;SDS011;64862;54.398;10.126;2023-03-25T03:29:00;15.15;;;5.47;;
16967;SDS011;64862;54.398;10.126;2023-03-25T03:39:11;14.15;;;5.30;;
16967;SDS011;64862;54.398;10.126;2023-03-25T03:49:19;16.60;;;5.50;;
16967;SDS011;64862;54.398;10.126;2023-03-25T03:59:29;11.93;;;4.60;;
16967;SDS011;64862;54.398;10.126;2023-03-25T04:09:38;12.32;;;4.30;;
16967;SDS011;64862;54.398;10.126;2023-03-25T04:19:45;15.55;;;3.55;;
16967;SDS011;64862;54.398;10.126;2023-03-25T04:29:48;11.82;;;3.75;;
16967;SDS011;64862;54.398;10.126;2023-03-25T04:39:53;14.15;;;4.70;;
16967;SDS011;64862;54.398;10.126;2023-03-25T04:49:59;13.02;;;4.00;;
16967;SDS011;64862;54.398;10.126;2023-03-25T05:00:02;8.30;;;2.45;;
16967;SDS011;64862;54.398;10.126;2023-03-25T05:10:07;5.80;;;1.48;;
16967;SDS011;64862;54.398;10.126;2023-03-25T05:20:11;5.15;;;1.60;;
16967;SDS011;64862;54.398;10.126;2023-03-25T05:30:15;5.32;;;1.80;;
16967;SDS011;64862;54.398;10.126;2023-03-25T05:40:18;7.43;;;2.47;;
16967;SDS011;64862;54.398;10.126;2023-03-25T05:50:21;9.57;;;3.25;;
16967;SDS011;64862;54.398;10.126;2023-03-25T06:00:24;9.73;;;4.03;;
16967;SDS011;64862;54.398;10.126;2023-03-25T06:10:26;9.77;;;4.60;;
16967;SDS011;64862;54.398;10.126;2023-03-25T06:20:30;10.40;;;4.30;;
16967;SDS011;64862;54.398;10.126;2023-03-25T06:30:32;11.73;;;4.65;;
16967;SDS011;64862;54.398;10.126;2023-03-25T06:40:36;9.60;;;3.95;;
16967;SDS011;64862;54.398;10.126;2023-03-25T06:50:39;16.33;;;4.45;;
16967;SDS011;64862;54.398;10.126;2023-03-25T07:00:42;11.68;;;3.33;;
16967;SDS011;64862;54.398;10.126;2023-03-25T07:10:46;11.70;;;2.20;;
16967;SDS011;64862;54.398;10.126;2023-03-25T07:20:49;11.88;;;1.90;;
16967;SDS011;64862;54.398;10.126;2023-03-25T07:30:51;17.52;;;2.20;;
16967;SDS011;64862;54.398;10.126;2023-03-25T07:40:56;14.15;;;2.13;;
16967;SDS011;64862;54.398;10.126;2023-03-25T07:50:58;14.15;;;2.33;;
16967;SDS011;64862;54.398;10.126;2023-03-25T08:01:02;12.95;;;1.98;;
16967;SDS011;64862;54.398;10.126;2023-03-25T08:11:04;9.85;;;2.13;;
16967;SDS011;64862;54.398;10.126;2023-03-25T08:21:08;11.32;;;2.30;;
16967;SDS011;64862;54.398;10.126;2023-03-25T08:31:10;10.27;;;2.42;;
16967;SDS011;64862;54.398;10.126;2023-03-25T08:41:14;16.33;;;2.45;;
16967;SDS011;64862;54.398;10.126;2023-03-25T08:51:16;12.15;;;2.20;;
16967;SDS011;64862;54.398;10.126;2023-03-25T09:01:19;12.23;;;2.17;;
16967;SDS011;64862;54.398;10.126;2023-03-25T09:11:23;11.82;;;2.13;;
16967;SDS011;64862;54.398;10.126;2023-03-25T09:21:26;10.70;;;1.90;;
16967;SDS011;64862;54.398;10.126;2023-03-25T09:31:29;10.02;;;1.73;;
16967;SDS011;64862;54.398;10.126;2023-03-25T09:41:37;11.82;;;1.88;;
16967;SDS011;64862;54.398;10.126;2023-03-25T09:51:47;14.38;;;2.70;;
16967;SDS011;64862;54.398;10.126;2023-03-25T10:01:54;13.65;;;2.33;;
16967;SDS011;64862;54.398;10.126;2023-03-25T10:12:04;10.25;;;2.03;;
16967;SDS011;64862;54.398;10.126;2023-03-25T10:22:23;8.88;;;1.67;;
16967;SDS011;64862;54.398;10.126;2023-03-25T10:32:30;10.95;;;1.67;;
16967;SDS011;64862;54.398;10.126;2023-03-25T10:42:40;10.43;;;1.90;;
16967;SDS011;64862;54.398;10.126;2023-03-25T10:52:53;7.13;;;1.00;;
16967;SDS011;64862;54.398;10.126;2023-03-25T11:02:57;8.00;;;1.63;;
16967;SDS011;64862;54.398;10.126;2023-03-25T11:13:01;9.32;;;1.60;;
16967;SDS011;64862;54.398;10.126;2023-03-25T11:23:05;11.25;;;1.85;;
16967;SDS011;64862;54.398;10.126;2023-03-25T11:33:13;12.48;;;1.95;;
16967;SDS011;64862;54.398;10.126;2023-03-25T11:43:20;12.57;;;2.30;;
16967;SDS011;64862;54.398;10.126;2023-03-25T11:53:24;10.98;;;2.03;;
16967;SDS011;64862;54.398;10.126;2023-03-25T12:03:29;13.85;;;2.03;;
16967;SDS011;64862;54.398;10.126;2023-03-25T12:13:34;12.55;;;2.47;;
16967;SDS011;64862;54.398;10.126;2023-03-25T12:23:48;7.60;;;1.25;;
16967;SDS011;64862;54.398;10.126;2023-03-25T12:34:04;8.50;;;1.50;;
16967;SDS011;64862;54.398;10.126;2023-03-25T12:44:20;6.20;;;1.20;;
16967;SDS011;64862;54.398;10.126;2023-03-25T12:54:36;5.53;;;0.77;;
16967;SDS011;64862;54.398;10.126;2023-03-25T13:04:53;5.18;;;1.02;;
16967;SDS011;64862;54.398;10.126;2023-03-25T13:15:10;7.07;;;0.90;;
16967;SDS011;64862;54.398;10.126;2023-03-25T13:25:19;3.08;;;0.80;;
16967;SDS011;64862;54.398;10.126;2023-03-25T13:35:29;5.55;;;1.05;;
16967;SDS011;64862;54.398;10.126;2023-03-25T13:45:41;7.72;;;1.13;;
16967;SDS011;64862;54.398;10.126;2023-03-25T13:55:50;7.95;;;1.25;;
16967;SDS011;64862;54.398;10.126;2023-03-25T14:16:39;10.00;;;1.65;;
16967;SDS011;64862;54.398;10.126;2023-03-25T14:26:46;13.75;;;2.20;;
16967;SDS011;64862;54.398;10.126;2023-03-25T14:37:13;11.27;;;2.00;;
16967;SDS011;64862;54.398;10.126;2023-03-25T14:47:29;11.43;;;1.80;;
16967;SDS011;64862;54.398;10.126;2023-03-25T14:57:39;11.03;;;1.90;;
16967;SDS011;64862;54.398;10.126;2023-03-25T15:07:44;11.90;;;1.90;;
16967;SDS011;64862;54.398;10.126;2023-03-25T15:17:50;12.75;;;2.30;;
16967;SDS011;64862;54.398;10.126;2023-03-25T15:27:58;14.45;;;2.42;;
16967;SDS011;64862;54.398;10.126;2023-03-25T15:59:18;15.60;;;2.45;;
16967;SDS011;64862;54.398;10.126;2023-03-25T16:09:30;15.48;;;2.50;;
16967;SDS011;64862;54.398;10.126;2023-03-25T16:19:37;20.67;;;4.18;;
16967;SDS011;64862;54.398;10.126;2023-03-25T16:29:47;13.02;;;2.05;;
16967;SDS011;64862;54.398;10.126;2023-03-25T16:39:52;15.70;;;2.35;;
16967;SDS011;64862;54.398;10.126;2023-03-25T16:49:56;12.45;;;1.50;;
16967;SDS011;64862;54.398;10.126;2023-03-25T17:00:03;5.03;;;1.30;;
16967;SDS011;64862;54.398;10.126;2023-03-25T17:10:18;17.17;;;5.80;;
16967;SDS011;64862;54.398;10.126;2023-03-25T17:20:24;5.20;;;0.65;;
16967;SDS011;64862;54.398;10.126;2023-03-25T17:30:35;4.05;;;1.00;;
16967;SDS011;64862;54.398;10.126;2023-03-25T17:40:44;3.90;;;0.60;;
16967;SDS011;64862;54.398;10.126;2023-03-25T17:50:51;4.95;;;0.82;;
16967;SDS011;64862;54.398;10.126;2023-03-25T18:00:55;8.30;;;1.20;;
16967;SDS011;64862;54.398;10.126;2023-03-25T18:10:59;6.03;;;0.98;;
16967;SDS011;64862;54.398;10.126;2023-03-25T18:21:01;6.50;;;1.33;;
16967;SDS011;64862;54.398;10.126;2023-03-25T18:31:08;5.40;;;1.35;;
16967;SDS011;64862;54.398;10.126;2023-03-25T18:41:14;12.50;;;1.83;;
16967;SDS011;64862;54.398;10.126;2023-03-25T18:51:18;7.78;;;1.35;;
16967;SDS011;64862;54.398;10.126;2023-03-25T19:01:21;9.18;;;1.70;;
16967;SDS011;64862;54.398;10.126;2023-03-25T19:11:25;8.52;;;1.88;;
16967;SDS011;64862;54.398;10.126;2023-03-25T19:21:29;12.60;;;2.50;;
16967;SDS011;64862;54.398;10.126;2023-03-25T19:31:33;10.00;;;3.00;;
16967;SDS011;64862;54.398;10.126;2023-03-25T19:41:35;11.57;;;3.05;;
16967;SDS011;64862;54.398;10.126;2023-03-25T19:51:43;13.88;;;3.35;;
16967;SDS011;64862;54.398;10.126;2023-03-25T20:01:45;18.25;;;3.42;;
16967;SDS011;64862;54.398;10.126;2023-03-25T20:11:48;17.20;;;3.10;;
16967;SDS011;64862;54.398;10.126;2023-03-25T20:21:50;17.50;;;3.65;;
16967;SDS011;64862;54.398;10.126;2023-03-25T20:31:54;17.58;;;2.97;;
16967;SDS011;64862;54.398;10.126;2023-03-25T20:41:56;14.35;;;2.75;;
16967;SDS011;64862;54.398;10.126;2023-03-25T20:51:59;13.40;;;2.63;;
16967;SDS011;64862;54.398;10.126;2023-03-25T21:02:01;7.25;;;1.83;;
16967;SDS011;64862;54.398;10.126;2023-03-25T21:12:05;6.47;;;1.55;;
16967;SDS011;64862;54.398;10.126;2023-03-25T21:22:07;10.98;;;1.88;;
16967;SDS011;64862;54.398;10.126;2023-03-25T21:32:11;7.35;;;2.10;;
16967;SDS011;64862;54.398;10.126;2023-03-25T21:42:13;11.68;;;2.35;;
16967;SDS011;64862;54.398;10.126;2023-03-25T21:52:16;11.95;;;2.38;;
16967;SDS011;64862;54.398;10.126;2023-03-25T22:02:18;9.55;;;2.22;;
16967;SDS011;64862;54.398;10.126;2023-03-25T22:12:21;13.02;;;2.30;;
16967;SDS011;64862;54.398;10.126;2023-03-25T22:22:23;15.95;;;2.80;;
16967;SDS011;64862;54.398;10.126;2023-03-25T22:32:27;13.52;;;2.88;;
16967;SDS011;64862;54.398;10.126;2023-03-25T22:52:40;16.52;;;3.45;;
16967;SDS011;64862;54.398;10.126;2023-03-25T23:02:42;22.92;;;3.90;;
16967;SDS011;64862;54.398;10.126;2023-03-25T23:12:48;25.00;;;4.03;;
16967;SDS011;64862;54.398;10.126;2023-03-25T23:22:50;18.75;;;3.85;;
16967;SDS011;64862;54.398;10.126;2023-03-25T23:32:53;20.20;;;3.92;;
16967;SDS011;64862;54.398;10.126;2023-03-25T23:52:58;14.25;;;3.22;;
